Time;durP1;ratioP1;P1;durP2;ratioP2;P2;SDS_P1;SDS_P2;PMS_P1;PMS_P2;Temp;Humidity;BMP_temperature;BMP_pressure;BME280_temperature;BME280_humidity;BME280_pressure;Samples;Min_cycle;Max_cycle;Signal;HPM_P1;HPM_P2
2022/02/24 00:00:31;;;;;;;15.52;5.10;;;;;;;8.83;71.39;101598.09;5033024;28;20043;-47
2022/02/24 00:03:02;;;;;;;14.15;4.90;;;;;;;8.85;71.77;101604.13;5027040;28;20124;-46
2022/02/24 00:05:30;;;;;;;11.35;4.13;;;;;;;8.85;71.83;101597.84;5012932;28;20034;-45
2022/02/24 00:07:59;;;;;;;14.45;4.53;;;;;;;8.83;71.55;101600.81;5014214;28;20124;-45
2022/02/24 00:10:27;;;;;;;12.00;4.72;;;;;;;8.82;71.75;101596.41;5013830;28;20424;-45
2022/02/24 00:12:54;;;;;;;13.63;4.90;;;;;;;8.82;72.01;101588.28;5014825;28;20073;-42
2022/02/24 00:15:22;;;;;;;11.20;4.28;;;;;;;8.83;71.83;101581.78;5013665;28;20038;-43
2022/02/24 00:17:50;;;;;;;11.90;4.78;;;;;;;8.84;72.15;101578.00;5013723;28;20117;-43
2022/02/24 00:20:17;;;;;;;12.65;4.20;;;;;;;8.83;72.03;101572.81;5012688;28;20042;-43
2022/02/24 00:22:45;;;;;;;14.57;4.70;;;;;;;8.84;72.44;101569.84;5013913;28;20048;-42
2022/02/24 00:25:13;;;;;;;13.63;4.10;;;;;;;8.84;72.64;101558.97;5012533;28;20507;-42
2022/02/24 00:27:40;;;;;;;13.48;4.75;;;;;;;8.86;72.46;101559.56;5016239;28;20137;-43
2022/02/24 00:30:09;;;;;;;12.88;4.57;;;;;;;8.83;72.55;101565.47;5032039;28;20419;-44
2022/02/24 00:32:37;;;;;;;15.95;4.80;;;;;;;8.85;73.82;101549.78;5031810;28;20056;-47
2022/02/24 00:35:05;;;;;;;14.60;5.10;;;;;;;8.89;73.95;101555.53;5033127;28;20411;-47
2022/02/24 00:37:33;;;;;;;17.80;5.40;;;;;;;8.85;73.47;101549.78;5032671;28;20041;-45
2022/02/24 00:40:00;;;;;;;12.95;4.93;;;;;;;8.81;72.72;101556.75;5016968;28;20057;-44
2022/02/24 00:42:28;;;;;;;10.82;4.38;;;;;;;8.80;73.20;101552.34;5033078;28;20048;-41
2022/02/24 00:44:56;;;;;;;13.02;4.55;;;;;;;8.80;73.44;101546.09;5031905;28;20128;-42
2022/02/24 00:47:25;;;;;;;13.00;4.85;;;;;;;8.78;72.78;101543.63;5023282;28;20048;-41
2022/02/24 00:49:52;;;;;;;10.90;4.47;;;;;;;8.75;73.17;101544.09;5013312;28;20493;-44
2022/02/24 00:52:20;;;;;;;18.27;5.85;;;;;;;8.78;72.96;101542.78;5013174;28;20133;-44
2022/02/24 00:54:48;;;;;;;13.05;4.80;;;;;;;8.90;74.05;101536.28;5014521;28;20069;-43
2022/02/24 00:57:17;;;;;;;15.98;5.53;;;;;;;8.84;71.96;101533.69;5014688;28;20092;-45
2022/02/24 00:59:45;;;;;;;14.38;4.80;;;;;;;8.78;70.92;101535.47;5013240;28;20042;-42
2022/02/24 01:02:12;;;;;;;14.52;4.70;;;;;;;8.76;70.53;101528.63;5013256;28;20044;-43
2022/02/24 01:04:40;;;;;;;15.90;4.60;;;;;;;8.75;70.26;101522.34;5018493;28;20408;-44
2022/02/24 01:07:08;;;;;;;14.38;4.90;;;;;;;8.73;70.25;101510.88;5033136;28;20098;-43
2022/02/24 01:09:36;;;;;;;15.45;4.82;;;;;;;8.73;70.17;101508.19;5031383;28;20037;-46
2022/02/24 01:12:04;;;;;;;15.73;4.60;;;;;;;8.73;69.97;101509.03;5033176;28;20484;-43
2022/02/24 01:14:32;;;;;;;13.70;4.63;;;;;;;8.72;70.40;101498.38;5032397;28;20049;-48
2022/02/24 01:17:00;;;;;;;13.43;4.20;;;;;;;8.72;70.36;101511.97;5033239;28;20042;-47
2022/02/24 01:19:27;;;;;;;14.45;5.18;;;;;;;8.71;70.84;101511.16;5031501;28;20049;-44
2022/02/24 01:21:55;;;;;;;16.13;4.55;;;;;;;8.71;70.22;101504.91;5032885;28;20038;-47
2022/02/24 01:24:23;;;;;;;14.18;4.70;;;;;;;8.70;71.02;101509.47;5031124;28;20387;-43
2022/02/24 01:26:50;;;;;;;14.70;4.75;;;;;;;8.74;70.94;101504.41;5032669;28;20050;-44
2022/02/24 01:29:18;;;;;;;17.17;4.75;;;;;;;8.73;70.00;101500.03;5025348;28;20510;-47
2022/02/24 01:31:46;;;;;;;15.95;4.70;;;;;;;8.70;69.94;101490.47;5014383;28;20056;-47
2022/02/24 01:34:14;;;;;;;14.30;4.70;;;;;;;8.74;69.92;101485.38;5017298;28;20073;-47
2022/02/24 01:36:41;;;;;;;12.40;4.55;;;;;;;8.71;69.28;101480.44;5017120;28;20062;-48
2022/02/24 01:39:09;;;;;;;12.88;4.10;;;;;;;8.70;69.02;101476.06;5017469;28;20130;-46
2022/02/24 01:41:37;;;;;;;14.00;4.25;;;;;;;8.66;68.20;101464.00;5016633;28;20082;-45
2022/02/24 01:44:13;;;;;;;12.77;4.45;;;;;;;8.63;68.55;101465.31;5022307;28;20048;-50
2022/02/24 01:46:42;;;;;;;;;;;;;;;8.74;73.36;101447.34;5035603;28;20041;-46
2022/02/24 01:49:10;;;;;;;14.25;4.43;;;;;;;8.72;70.97;101447.59;5036291;28;19921;-49
2022/02/24 01:51:38;;;;;;;18.02;4.78;;;;;;;8.73;69.51;101443.81;5034660;28;20056;-49
2022/02/24 01:54:07;;;;;;;14.93;4.20;;;;;;;8.69;69.03;101442.63;5035874;28;20076;-49
2022/02/24 01:56:36;;;;;;;15.45;4.53;;;;;;;8.72;70.40;101439.44;5036180;28;20439;-49
2022/02/24 01:59:04;;;;;;;15.88;3.88;;;;;;;8.70;68.93;101427.16;5036360;28;20072;-50
2022/02/24 02:01:32;;;;;;;12.35;4.32;;;;;;;8.66;68.41;101425.97;5024697;28;20129;-46
2022/02/24 02:04:00;;;;;;;15.20;4.47;;;;;;;8.65;68.27;101418.91;5023763;28;20144;-48
2022/02/24 02:06:28;;;;;;;13.18;4.40;;;;;;;8.65;67.57;101413.47;5035892;28;20052;-46
2022/02/24 02:08:55;;;;;;;15.82;4.70;;;;;;;8.62;67.35;101405.81;5036104;28;20042;-48
2022/02/24 02:11:23;;;;;;;12.52;3.67;;;;;;;8.65;67.52;101408.03;5034402;28;20037;-46
2022/02/24 02:13:51;;;;;;;17.95;4.63;;;;;;;8.62;67.71;101408.53;5034060;28;20052;-47
2022/02/24 02:16:18;;;;;;;14.82;3.90;;;;;;;8.62;67.73;101400.38;5016937;28;20045;-46
2022/02/24 02:18:46;;;;;;;11.60;3.42;;;;;;;8.68;68.92;101391.25;5015858;28;20046;-49
2022/02/24 02:21:14;;;;;;;12.23;4.20;;;;;;;8.65;67.73;101387.13;5016887;28;20404;-47
2022/02/24 02:23:42;;;;;;;15.63;3.95;;;;;;;8.63;67.01;101383.81;5022472;28;20051;-48
2022/02/24 02:26:09;;;;;;;11.60;3.85;;;;;;;8.62;67.44;101384.91;5035840;28;20041;-45
2022/02/24 02:28:38;;;;;;;12.05;4.10;;;;;;;8.64;66.62;101380.06;5034491;28;20543;-46
2022/02/24 02:31:05;;;;;;;13.23;4.10;;;;;;;8.63;66.54;101377.56;5035381;28;20504;-49
2022/02/24 02:33:33;;;;;;;13.25;3.95;;;;;;;8.64;67.56;101379.25;5024819;28;20097;-47
2022/02/24 02:36:02;;;;;;;12.18;3.88;;;;;;;8.63;66.79;101369.44;5014602;28;20042;-46
2022/02/24 02:38:29;;;;;;;10.82;3.83;;;;;;;8.70;69.97;101372.81;5015850;28;20405;-47
2022/02/24 02:40:57;;;;;;;10.50;3.67;;;;;;;8.71;70.28;101374.50;5031764;28;20057;-47
2022/02/24 02:43:24;;;;;;;13.98;4.07;;;;;;;8.68;69.31;101372.22;5032231;28;20051;-48
2022/02/24 02:45:52;;;;;;;10.23;3.55;;;;;;;8.66;69.54;101361.63;5035337;28;20041;-47
2022/02/24 02:48:20;;;;;;;11.95;3.80;;;;;;;8.72;69.90;101359.84;5035356;28;20396;-46
2022/02/24 02:50:47;;;;;;;14.77;4.13;;;;;;;8.67;69.47;101365.16;5033587;28;20057;-46
2022/02/24 02:53:15;;;;;;;12.75;4.45;;;;;;;8.65;69.32;101364.59;5033611;28;20543;-45
2022/02/24 02:55:45;;;;;;;12.57;4.10;;;;;;;8.66;69.94;101360.78;5035625;28;20045;-45
2022/02/24 02:58:12;;;;;;;12.93;4.32;;;;;;;8.63;70.01;101362.09;5033317;28;20042;-46
2022/02/24 03:00:40;;;;;;;15.95;4.50;;;;;;;8.62;69.66;101354.22;5033978;28;20583;-45
2022/02/24 03:03:08;;;;;;;11.98;3.70;;;;;;;8.63;70.57;101344.97;5031964;28;20049;-47
2022/02/24 03:05:36;;;;;;;13.73;4.10;;;;;;;8.63;70.42;101344.97;5014751;28;20038;-47
2022/02/24 03:08:05;;;;;;;11.18;3.92;;;;;;;8.68;71.28;101339.63;5016485;28;20089;-46
2022/02/24 03:10:32;;;;;;;15.40;4.78;;;;;;;8.63;70.08;101337.66;5015088;28;20042;-49
2022/02/24 03:13:00;;;;;;;9.88;3.35;;;;;;;8.68;72.87;101336.91;5015908;28;20061;-45
2022/02/24 03:15:28;;;;;;;13.25;3.78;;;;;;;8.69;72.32;101338.59;5014860;28;20076;-47
2022/02/24 03:17:56;;;;;;;14.75;4.10;;;;;;;8.66;70.46;101334.47;5015079;28;20552;-44
2022/02/24 03:20:23;;;;;;;11.13;3.95;;;;;;;8.63;71.34;101323.25;5014681;28;20041;-44
2022/02/24 03:22:53;;;;;;;13.52;3.42;;;;;;;8.66;73.31;101320.03;5025379;28;20385;-44
2022/02/24 03:25:21;;;;;;;14.40;4.18;;;;;;;8.63;71.77;101317.81;5034798;28;20056;-45
2022/02/24 03:27:48;;;;;;;18.52;5.00;;;;;;;8.61;71.30;101314.50;5022709;28;20117;-45
2022/02/24 03:30:18;;;;;;;15.35;4.22;;;;;;;8.64;70.83;101304.00;5014574;28;20046;-44
2022/02/24 03:32:46;;;;;;;12.88;4.20;;;;;;;8.57;71.50;101311.47;5015870;28;20469;-45
2022/02/24 03:35:14;;;;;;;11.60;4.20;;;;;;;8.53;70.23;101305.69;5014626;28;20046;-45
2022/02/24 03:37:42;;;;;;;12.25;4.00;;;;;;;8.54;70.91;101309.25;5026404;28;20070;-46
2022/02/24 03:40:11;;;;;;;16.30;4.78;;;;;;;8.52;70.28;101309.47;5012883;28;20519;-46
2022/02/24 03:42:39;;;;;;;14.45;4.28;;;;;;;8.52;70.43;101301.34;5015455;28;20049;-46
2022/02/24 03:45:07;;;;;;;11.38;3.83;;;;;;;8.61;72.22;101299.06;5013468;28;20046;-46
2022/02/24 03:47:36;;;;;;;12.55;3.85;;;;;;;8.62;72.29;101300.69;5025550;28;20049;-45
2022/02/24 03:50:05;;;;;;;12.00;3.47;;;;;;;8.61;73.48;101288.19;5034345;28;20575;-46
2022/02/24 03:52:33;;;;;;;14.50;3.95;;;;;;;8.65;75.01;101294.78;5032416;28;20055;-46
2022/02/24 03:55:01;;;;;;;10.80;3.47;;;;;;;8.64;74.08;101287.69;5018383;28;20125;-45
2022/02/24 03:57:29;;;;;;;9.38;3.78;;;;;;;8.63;74.06;101285.22;5014581;28;20132;-46
2022/02/24 03:59:57;;;;;;;11.88;4.10;;;;;;;8.62;74.84;101278.16;5014396;28;20046;-46
2022/02/24 04:02:24;;;;;;;11.32;3.85;;;;;;;8.63;75.06;101271.63;5013880;28;20473;-47
2022/02/24 04:04:53;;;;;;;10.57;3.47;;;;;;;8.64;75.53;101259.72;5015151;28;20133;-47
2022/02/24 04:07:21;;;;;;;14.98;4.40;;;;;;;8.64;75.97;101257.00;5025068;28;20492;-45
2022/02/24 04:09:49;;;;;;;9.15;3.03;;;;;;;8.71;79.02;101249.53;5032823;28;20153;-45
2022/02/24 04:12:18;;;;;;;9.25;3.42;;;;;;;8.73;78.90;101247.34;5033820;28;20051;-43
2022/02/24 04:14:46;;;;;;;11.05;3.80;;;;;;;8.73;80.58;101242.78;5032277;28;20048;-44
2022/02/24 04:17:15;;;;;;;8.73;3.85;;;;;;;8.71;78.22;101244.09;5025970;28;20080;-43
2022/02/24 04:19:43;;;;;;;10.75;3.53;;;;;;;8.68;78.38;101241.84;5013935;28;20508;-42
2022/02/24 04:22:11;;;;;;;9.73;3.42;;;;;;;8.65;78.59;101242.34;5013418;28;20464;-42
2022/02/24 04:24:39;;;;;;;14.25;4.32;;;;;;;8.62;77.63;101235.50;5003061;28;20042;-43
2022/02/24 04:27:10;;;;;;;10.57;3.92;;;;;;;8.66;78.46;101231.25;5014688;28;20037;-44
2022/02/24 04:29:38;;;;;;;15.25;4.88;;;;;;;8.62;77.12;101221.09;5033793;28;20045;-43
2022/02/24 04:32:06;;;;;;;15.88;4.55;;;;;;;8.54;75.96;101214.19;5032964;28;20057;-47
2022/02/24 04:34:34;;;;;;;13.60;4.20;;;;;;;8.50;75.75;101204.88;5032295;28;20045;-42
2022/02/24 04:37:02;;;;;;;12.95;4.30;;;;;;;8.48;75.39;101207.00;5033950;28;20133;-49
2022/02/24 04:39:29;;;;;;;11.25;4.22;;;;;;;8.46;75.02;101207.25;5017956;28;20064;-46
2022/02/24 04:41:57;;;;;;;15.18;4.63;;;;;;;8.43;74.66;101196.88;5014252;28;20072;-45
2022/02/24 04:44:25;;;;;;;8.30;3.45;;;;;;;8.45;75.56;101202.88;5023569;28;20042;-48
2022/02/24 04:46:53;;;;;;;14.38;4.03;;;;;;;8.51;77.26;101204.66;5032634;28;20048;-46
2022/02/24 04:49:21;;;;;;;10.88;3.53;;;;;;;8.55;77.73;101201.44;5031717;28;20128;-44
2022/02/24 04:51:49;;;;;;;13.00;3.95;;;;;;;8.51;75.86;101196.50;5033152;28;20045;-44
2022/02/24 04:54:17;;;;;;;11.73;4.05;;;;;;;8.52;76.28;101200.84;5031691;28;20492;-44
2022/02/24 04:56:45;;;;;;;12.88;3.75;;;;;;;8.55;76.46;101193.28;5031808;28;20061;-44
2022/02/24 04:59:12;;;;;;;13.10;3.90;;;;;;;8.50;76.66;101196.72;5033204;28;20129;-45
2022/02/24 05:01:40;;;;;;;12.07;3.90;;;;;;;8.51;77.02;101190.22;5033123;28;20128;-44
2022/02/24 05:04:08;;;;;;;12.70;4.07;;;;;;;8.49;77.17;101190.47;5032986;28;20037;-44
2022/02/24 05:06:36;;;;;;;13.48;3.80;;;;;;;8.47;76.51;101180.94;5032172;28;20044;-44
2022/02/24 05:09:04;;;;;;;13.73;4.50;;;;;;;8.51;76.53;101184.78;5037400;28;20128;-46
2022/02/24 05:11:33;;;;;;;15.98;4.38;;;;;;;8.50;76.74;101178.53;5037074;28;20049;-44
2022/02/24 05:14:01;;;;;;;11.80;4.07;;;;;;;8.48;76.68;101177.94;5031286;28;20452;-45
2022/02/24 05:16:29;;;;;;;14.13;4.90;;;;;;;8.46;75.78;101171.94;5019334;28;20124;-45
2022/02/24 05:18:57;;;;;;;12.65;3.72;;;;;;;8.45;76.22;101164.88;5035339;28;20403;-46
2022/02/24 05:21:25;;;;;;;16.20;4.35;;;;;;;8.42;76.09;101165.38;5035446;28;20147;-45
2022/02/24 05:23:52;;;;;;;12.93;4.28;;;;;;;8.42;76.06;101165.38;5037138;28;20049;-45
2022/02/24 05:26:20;;;;;;;12.35;3.60;;;;;;;8.48;77.79;101158.94;5037075;28;20047;-45
2022/02/24 05:28:48;;;;;;;12.13;4.25;;;;;;;8.50;76.15;101145.13;5019183;28;20042;-44
2022/02/24 05:31:15;;;;;;;10.30;3.45;;;;;;;8.50;76.87;101142.41;5018243;28;20068;-44
2022/02/24 05:33:43;;;;;;;14.63;4.07;;;;;;;8.48;76.23;101142.66;5016856;28;20108;-45
2022/02/24 05:36:11;;;;;;;13.70;4.47;;;;;;;8.45;75.87;101132.28;5017147;28;20404;-46
2022/02/24 05:38:38;;;;;;;15.00;4.30;;;;;;;8.45;75.70;101143.16;5019245;28;20046;-46
2022/02/24 05:41:06;;;;;;;10.63;3.42;;;;;;;8.51;76.98;101134.03;5016369;28;20152;-46
2022/02/24 05:43:34;;;;;;;13.95;4.25;;;;;;;8.56;78.62;101116.16;5016612;28;20048;-45
2022/02/24 05:46:01;;;;;;;11.48;4.45;;;;;;;8.52;76.70;101121.28;5036283;28;20049;-45
2022/02/24 05:48:29;;;;;;;13.80;3.90;;;;;;;8.44;75.71;101113.53;5018253;28;20522;-46
2022/02/24 05:50:56;;;;;;;11.60;4.03;;;;;;;8.45;76.34;101110.56;5016543;28;20044;-45
2022/02/24 05:53:24;;;;;;;9.60;3.40;;;;;;;8.67;81.00;101113.34;5016443;28;20042;-47
2022/02/24 05:55:52;;;;;;;6.13;2.47;;;;;;;8.92;86.40;101099.34;5017119;28;20049;-46
2022/02/24 05:58:19;;;;;;;6.78;2.78;;;;;;;9.07;84.48;101095.19;5034661;28;20045;-47
2022/02/24 06:00:48;;;;;;;8.63;3.30;;;;;;;8.92;81.51;101098.50;5036121;28;20041;-45
2022/02/24 06:03:15;;;;;;;10.95;3.70;;;;;;;9.11;83.10;101086.25;5030889;28;20060;-46
2022/02/24 06:05:43;;;;;;;12.93;3.67;;;;;;;9.02;82.63;101087.78;5016479;28;20050;-44
2022/02/24 06:08:11;;;;;;;13.95;3.85;;;;;;;9.20;83.44;101083.94;5015820;28;20049;-46
2022/02/24 06:10:38;;;;;;;9.30;2.85;;;;;;;9.11;85.09;101080.00;5029383;28;20045;-48
2022/02/24 06:13:06;;;;;;;7.57;2.80;;;;;;;9.48;83.71;101079.38;5034875;28;20056;-46
2022/02/24 06:15:34;;;;;;;8.73;3.20;;;;;;;9.33;81.33;101071.84;5016214;28;20508;-47
2022/02/24 06:18:16;;;;;;;14.35;4.15;;;;;;;9.28;79.85;101075.31;5031055;28;20043;-46
2022/02/24 06:20:44;;;;;;;12.68;3.75;;;;;;;8.99;79.83;101071.16;5035384;28;20067;-46
2022/02/24 06:23:11;;;;;;;11.60;3.88;;;;;;;8.88;81.02;101067.47;4680526;28;10000458;-45
2022/02/24 06:25:39;;;;;;;10.90;3.30;;;;;;;8.94;84.89;101059.13;5012615;28;20042;-43
2022/02/24 06:28:07;;;;;;;13.20;4.00;;;;;;;8.93;85.22;101072.97;5012939;28;20058;-45
2022/02/24 06:30:34;;;;;;;13.00;3.92;;;;;;;8.95;83.03;101070.84;5012786;28;20447;-48
2022/02/24 06:33:03;;;;;;;12.63;3.63;;;;;;;9.10;83.70;101064.78;5013361;28;20148;-48
2022/02/24 06:35:32;;;;;;;11.65;3.58;;;;;;;9.18;84.50;101064.31;5026599;28;20069;-46
2022/02/24 06:38:01;;;;;;;11.88;3.50;;;;;;;9.05;84.51;101064.72;5012574;28;20041;-46
2022/02/24 06:40:30;;;;;;;9.55;3.42;;;;;;;9.13;84.91;101061.56;5012120;28;20092;-44
2022/02/24 06:42:59;;;;;;;9.55;3.22;;;;;;;9.08;85.54;101056.06;5019236;28;20041;-47
2022/02/24 06:45:27;;;;;;;11.02;2.83;;;;;;;9.01;86.42;101050.78;5030740;28;20054;-46
2022/02/24 06:47:55;;;;;;;12.60;3.88;;;;;;;9.30;85.35;101045.97;5022962;28;20042;-47
2022/02/24 06:50:23;;;;;;;10.23;3.10;;;;;;;9.26;85.41;101039.44;5012272;28;20038;-46
2022/02/24 06:52:50;;;;;;;9.65;3.22;;;;;;;9.25;88.15;101032.34;5013810;28;20049;-46
2022/02/24 06:55:18;;;;;;;13.48;3.40;;;;;;;9.27;86.46;101034.81;5025610;28;20502;-47
2022/02/24 06:57:48;;;;;;;10.25;3.03;;;;;;;9.43;87.09;101038.50;5010896;28;20057;-46
2022/02/24 07:00:17;;;;;;;12.75;4.18;;;;;;;9.50;82.69;101037.25;5016825;28;20052;-47
2022/02/24 07:02:45;;;;;;;16.55;4.82;;;;;;;9.23;80.04;101039.09;5026168;28;20061;-46
2022/02/24 07:05:13;;;;;;;13.20;3.90;;;;;;;8.83;79.21;101035.63;5012215;28;20046;-46
2022/02/24 07:07:41;;;;;;;13.25;3.90;;;;;;;8.73;79.58;101033.59;5016143;28;20503;-44
2022/02/24 07:10:12;;;;;;;12.32;4.18;;;;;;;8.66;80.49;101037.53;5032095;28;20052;-43
2022/02/24 07:12:40;;;;;;;13.70;4.10;;;;;;;8.59;79.57;101037.72;5027764;28;20408;-47
2022/02/24 07:15:09;;;;;;;11.70;4.40;;;;;;;8.48;77.98;101039.47;5011619;28;20054;-46
2022/02/24 07:17:42;;;;;;;13.93;4.05;;;;;;;8.47;79.41;101034.28;5011775;28;20077;-49
2022/02/24 07:20:11;;;;;;;8.18;3.30;;;;;;;8.77;82.67;101033.91;5011671;28;20412;-48
2022/02/24 07:22:39;;;;;;;11.63;4.00;;;;;;;8.73;82.25;101030.03;5011626;28;20051;-48
2022/02/24 07:25:10;;;;;;;10.90;3.20;;;;;;;8.85;84.50;101028.06;5011417;28;20475;-47
2022/02/24 07:27:38;;;;;;;7.88;3.00;;;;;;;8.91;87.70;101026.22;5013714;28;20069;-45
2022/02/24 07:30:07;;;;;;;8.85;2.90;;;;;;;9.17;87.49;101024.63;5009792;28;20049;-46
2022/02/24 07:32:35;;;;;;;11.98;3.65;;;;;;;9.29;84.85;101017.16;5012366;28;20509;-47
2022/02/24 07:35:03;;;;;;;9.00;3.03;;;;;;;9.36;84.02;101023.22;5010109;28;20046;-46
2022/02/24 07:37:31;;;;;;;11.60;3.25;;;;;;;9.11;80.53;101014.75;5026952;28;20056;-48
2022/02/24 07:39:59;;;;;;;11.23;3.88;;;;;;;9.00;80.00;101002.97;5031278;28;20088;-45
2022/02/24 07:42:28;;;;;;;10.98;3.53;;;;;;;9.17;83.93;101006.44;5030662;28;20037;-49
2022/02/24 07:44:56;;;;;;;12.43;3.95;;;;;;;9.08;81.54;101004.41;5030822;28;20058;-49
2022/02/24 07:47:24;;;;;;;9.40;3.33;;;;;;;8.94;81.13;101004.78;5030963;28;20048;-48
2022/02/24 07:49:52;;;;;;;11.15;3.70;;;;;;;9.07;81.62;101003.59;5028568;28;20037;-46
2022/02/24 07:52:20;;;;;;;14.00;4.20;;;;;;;8.92;80.01;101001.50;5040988;28;20050;-49
2022/02/24 07:54:47;;;;;;;11.15;3.80;;;;;;;8.81;79.14;101005.16;5010883;28;20137;-47
2022/02/24 07:57:17;;;;;;;10.27;3.70;;;;;;;8.77;77.60;100998.56;5044851;28;20060;-48
2022/02/24 07:59:45;;;;;;;11.07;3.92;;;;;;;8.67;76.04;101001.16;5030585;28;20045;-47
2022/02/24 08:02:13;;;;;;;13.55;3.97;;;;;;;8.58;75.87;100997.22;5028021;28;20046;-46
2022/02/24 08:04:41;;;;;;;14.38;4.63;;;;;;;8.60;76.10;101000.53;5030467;28;20048;-47
2022/02/24 08:07:08;;;;;;;11.05;4.32;;;;;;;8.48;76.86;100993.28;5030301;28;20407;-48
2022/02/24 08:09:36;;;;;;;21.88;6.13;;;;;;;8.74;85.15;100985.50;5029971;28;20076;-45
2022/02/24 08:14:52;;;;;;;20.75;5.90;;;;;;;9.23;81.43;100973.84;5011910;28;20408;-48
2022/02/24 08:17:25;;;;;;;21.08;6.43;;;;;;;9.25;81.20;100971.72;5010858;28;20042;-45
2022/02/24 08:19:53;;;;;;;12.98;3.85;;;;;;;9.21;77.76;100968.66;5010603;28;20124;-44
2022/02/24 08:22:22;;;;;;;17.77;5.22;;;;;;;8.94;77.87;100965.91;5010149;28;20037;-47
2022/02/24 08:24:50;;;;;;;15.88;4.75;;;;;;;9.05;78.32;100961.44;5010369;28;20042;-48
2022/02/24 08:27:19;;;;;;;15.60;4.35;;;;;;;9.06;79.46;100947.56;5013111;28;20056;-48
2022/02/24 08:29:47;;;;;;;23.98;5.90;;;;;;;9.23;85.72;100941.22;5030185;28;20049;-47
2022/02/24 08:32:14;;;;;;;17.73;5.78;;;;;;;9.23;82.69;100933.88;5029030;28;20492;-48
2022/02/24 08:34:42;;;;;;;19.60;5.78;;;;;;;9.27;83.95;100936.94;5029909;28;20084;-44
2022/02/24 08:37:10;;;;;;;17.52;5.10;;;;;;;9.32;84.14;100940.50;5024057;28;20132;-46
2022/02/24 08:39:37;;;;;;;11.55;4.18;;;;;;;9.28;79.08;100933.94;5012966;28;20557;-47
2022/02/24 08:42:05;;;;;;;10.88;3.55;;;;;;;9.03;76.38;100939.13;5011580;28;20046;-45
2022/02/24 08:44:33;;;;;;;13.48;4.30;;;;;;;8.90;74.66;100933.00;5013740;28;20072;-47
2022/02/24 08:47:01;;;;;;;14.55;4.72;;;;;;;8.81;75.83;100923.66;5014444;28;20038;-47
2022/02/24 08:49:29;;;;;;;15.25;4.47;;;;;;;8.99;77.59;100918.97;5031313;28;20049;-45
2022/02/24 08:51:56;;;;;;;18.40;5.70;;;;;;;9.54;84.43;100912.44;5014404;28;20074;-46
2022/02/24 08:54:24;;;;;;;14.55;4.45;;;;;;;9.86;79.44;100912.44;5019641;28;20395;-48
2022/02/24 08:56:51;;;;;;;13.30;3.95;;;;;;;9.49;74.20;100912.38;5027855;28;20072;-46
2022/02/24 08:59:19;;;;;;;18.02;4.72;;;;;;;9.77;78.72;100903.91;5012012;28;20038;-47
2022/02/24 09:01:47;;;;;;;10.98;4.15;;;;;;;9.47;77.17;100899.03;5014264;28;20057;-47
2022/02/24 09:04:15;;;;;;;18.63;4.88;;;;;;;9.47;78.36;100899.03;5011715;28;20041;-49
2022/02/24 09:06:43;;;;;;;17.90;5.15;;;;;;;9.79;78.60;100887.34;5013565;28;20046;-46
2022/02/24 09:09:11;;;;;;;13.70;3.78;;;;;;;9.57;72.60;100881.97;5013403;28;20068;-47
2022/02/24 09:11:39;;;;;;;14.57;4.30;;;;;;;9.39;74.72;100873.13;5012147;28;20058;-48
2022/02/24 09:14:07;;;;;;;12.50;3.95;;;;;;;9.28;76.82;100868.69;5013074;28;20037;-45
2022/02/24 09:16:35;;;;;;;16.98;5.18;;;;;;;9.73;82.74;100856.53;5016771;28;20041;-46
2022/02/24 09:19:03;;;;;;;11.77;4.43;;;;;;;9.80;78.41;100859.84;5032153;28;20451;-48
2022/02/24 09:21:31;;;;;;;11.32;3.33;;;;;;;9.98;76.63;100855.06;5031324;28;20099;-47
2022/02/24 09:23:58;;;;;;;15.60;4.53;;;;;;;9.85;79.85;100853.63;5032625;28;20052;-48
2022/02/24 09:26:26;;;;;;;15.73;3.92;;;;;;;9.61;75.10;100842.31;5030997;28;20033;-47
2022/02/24 09:28:54;;;;;;;12.55;3.75;;;;;;;9.58;72.08;100837.41;5031233;28;20136;-47
2022/02/24 09:31:21;;;;;;;11.40;3.53;;;;;;;9.98;83.04;100839.56;5032673;28;20556;-48
2022/02/24 09:33:49;;;;;;;10.75;3.67;;;;;;;10.44;81.07;100837.09;5031516;28;20136;-48
2022/02/24 09:36:17;;;;;;;13.15;4.70;;;;;;;10.36;78.29;100832.13;5022589;28;20056;-47
2022/02/24 09:38:44;;;;;;;14.00;4.53;;;;;;;10.08;80.09;100827.06;5012239;28;20076;-46
2022/02/24 09:41:13;;;;;;;14.30;3.95;;;;;;;10.28;73.47;100821.78;5012769;28;20100;-48
2022/02/24 09:43:44;;;;;;;12.60;4.20;;;;;;;10.17;78.65;100807.28;5012739;28;20050;-47
2022/02/24 09:46:16;;;;;;;15.60;4.28;;;;;;;10.11;77.66;100810.22;5015158;28;20042;-46
2022/02/24 09:48:45;;;;;;;14.15;4.05;;;;;;;10.01;74.72;100817.25;5027834;28;20402;-43
2022/02/24 09:51:16;;;;;;;10.27;3.67;;;;;;;10.16;79.40;100802.91;5012487;28;20041;-47
2022/02/24 09:53:48;;;;;;;14.05;3.72;;;;;;;9.97;75.75;100799.81;5017444;28;20049;-46
2022/02/24 09:56:21;;;;;;;11.45;4.15;;;;;;;10.41;80.02;100783.16;5020293;28;20200;-45
2022/02/24 09:58:50;;;;;;;11.40;3.50;;;;;;;10.14;72.94;100777.03;5016851;28;20049;-45
2022/02/24 10:01:18;;;;;;;12.40;3.58;;;;;;;10.09;76.41;100775.09;5015006;28;20287;-44
2022/02/24 10:03:53;;;;;;;12.45;3.83;;;;;;;10.53;79.63;100758.38;5014847;28;20046;-47
2022/02/24 10:06:33;;;;;;;12.25;3.30;;;;;;;10.30;79.37;100758.88;5015873;28;20049;-47
2022/02/24 10:09:00;;;;;;;10.77;3.30;;;;;;;10.15;78.22;100763.16;5017660;28;20052;-46
2022/02/24 10:11:28;;;;;;;13.48;3.40;;;;;;;10.33;77.78;100763.78;5034644;28;20136;-45
2022/02/24 10:14:15;;;;;;;14.82;4.18;;;;;;;10.05;74.45;100765.00;5028882;28;20053;-47
2022/02/24 10:17:02;;;;;;;12.85;3.72;;;;;;;10.02;73.31;100750.81;5015906;28;20046;-45
2022/02/24 10:19:36;;;;;;;13.20;3.50;;;;;;;9.94;76.84;100734.22;5016123;28;20046;-48
2022/02/24 10:22:26;;;;;;;12.07;3.80;;;;;;;10.24;73.49;100734.28;5029742;28;20120;-50
2022/02/24 10:25:02;;;;;;;8.93;3.17;;;;;;;9.93;75.16;100710.78;5023302;28;20488;-48
2022/02/24 10:27:38;;;;;;;;;;;;;;;9.69;70.97;100705.81;5016222;28;20033;-42
2022/02/24 10:30:16;;;;;;;10.20;3.63;;;;;;;9.68;74.24;100704.16;5014777;28;19968;-47
2022/02/24 10:32:49;;;;;;;12.48;3.97;;;;;;;9.57;70.30;100705.19;5024001;28;20037;-47
2022/02/24 10:35:30;;;;;;;13.90;3.63;;;;;;;9.71;75.02;100703.63;5035234;28;20417;-46
2022/02/24 10:38:01;;;;;;;10.85;3.42;;;;;;;10.01;75.32;100694.75;5034403;28;20472;-47
2022/02/24 10:40:32;;;;;;;10.02;3.38;;;;;;;9.93;72.53;100680.84;5035321;28;20174;-49
2022/02/24 10:43:10;;;;;;;11.15;3.50;;;;;;;9.95;72.70;100684.13;5033524;28;20042;-45
2022/02/24 10:45:39;;;;;;;10.70;3.42;;;;;;;9.68;68.57;100676.94;5035219;28;20045;-48
2022/02/24 10:48:07;;;;;;;11.60;3.50;;;;;;;9.70;67.46;100669.34;5035127;28;20480;-46
2022/02/24 10:50:55;;;;;;;13.60;3.92;;;;;;;9.68;68.04;100660.63;5034386;28;20037;-45
2022/02/24 10:53:28;;;;;;;9.65;3.65;;;;;;;9.60;69.91;100648.34;5030366;28;20046;-51
2022/02/24 10:55:56;;;;;;;25.27;6.38;;;;;;;9.87;72.20;100652.81;5015593;28;20064;-48
2022/02/24 10:58:25;;;;;;;12.35;4.10;;;;;;;9.82;67.91;100658.25;5015629;28;20076;-46
2022/02/24 11:01:13;;;;;;;13.45;3.45;;;;;;;9.60;66.20;100637.47;5015431;28;20042;-48
2022/02/24 11:03:43;;;;;;;14.13;3.40;;;;;;;9.47;66.71;100639.88;5028531;28;20432;-47
2022/02/24 11:06:12;;;;;;;11.95;3.30;;;;;;;9.50;67.94;100633.88;5034934;28;20044;-48
2022/02/24 11:08:41;;;;;;;13.00;3.80;;;;;;;9.51;67.22;100619.22;5033991;28;20130;-48
2022/02/24 11:11:12;;;;;;;12.00;4.40;;;;;;;9.71;71.13;100622.00;5031194;28;20045;-48
2022/02/24 11:13:40;;;;;;;12.55;4.03;;;;;;;10.09;69.18;100619.13;5015815;28;20050;-47
2022/02/24 11:16:07;;;;;;;22.77;8.40;;;;;;;9.96;69.83;100624.00;4997851;28;20065;-48
2022/02/24 11:18:36;;;;;;;33.35;13.73;;;;;;;9.98;72.51;100618.25;5013687;28;20038;-46
2022/02/24 11:21:05;;;;;;;20.00;7.28;;;;;;;9.95;71.80;100616.09;5013673;28;20041;-49
2022/02/24 11:23:33;;;;;;;20.77;8.40;;;;;;;10.40;75.09;100600.94;5026344;28;20512;-46
2022/02/24 11:26:22;;;;;;;31.98;14.20;;;;;;;10.86;79.65;100593.53;5015668;28;20057;-48
2022/02/24 11:28:54;;;;;;;47.13;18.00;;;;;;;11.28;74.34;100600.50;5003579;28;20076;-45
2022/02/24 11:31:25;;;;;;;36.85;15.88;;;;;;;11.18;71.82;100591.53;5018259;28;20037;-48
2022/02/24 11:33:54;;;;;;;46.65;15.25;;;;;;;11.74;77.69;100583.13;5026927;28;20159;-47